JST45 YMML-YSSY
Flight info
| Callsign | JST45 |
|---|---|
| Flight time | 0h 59m |
| Altitude | 37000 |
| Route | ML H129 DOSEL Y59 RIVET |
| Aircraft | A320/M-SDE3FGHIRWY/LB1 |
Departure
| Time | 2026-05-06 00:26 |
|---|---|
| Airport | Melbourne Airport (YMML) |
Arrival
| Time | 2026-05-06 01:26 |
|---|---|
| Airport | Sydney Kingsford Smith International Airport (YSSY) |
| Time | Latitude | Longitude | Altitude | Speed | Heading |
|---|---|---|---|---|---|
| 2026-05-06 00:20 | -37.67441 | 144.84680 | 381 ft | 0 kts | 262° |
| 2026-05-06 00:21 | -37.67443 | 144.84663 | 381 ft | 4 kts | 262° |
| 2026-05-06 00:21 | -37.67450 | 144.84606 | 380 ft | 9 kts | 260° |
| 2026-05-06 00:21 | -37.67463 | 144.84503 | 379 ft | 14 kts | 260° |
| 2026-05-06 00:21 | -37.67477 | 144.84399 | 377 ft | 12 kts | 261° |
| 2026-05-06 00:22 | -37.67545 | 144.84335 | 374 ft | 16 kts | 175° |
| 2026-05-06 00:22 | -37.67671 | 144.84355 | 370 ft | 20 kts | 173° |
| 2026-05-06 00:22 | -37.67798 | 144.84379 | 368 ft | 18 kts | 170° |
| 2026-05-06 00:22 | -37.67942 | 144.84409 | 363 ft | 24 kts | 171° |
| 2026-05-06 00:23 | -37.68114 | 144.84442 | 355 ft | 23 kts | 173° |
| 2026-05-06 00:23 | -37.68267 | 144.84467 | 352 ft | 17 kts | 170° |
| 2026-05-06 00:23 | -37.68376 | 144.84458 | 349 ft | 18 kts | 211° |
| 2026-05-06 00:23 | -37.68474 | 144.84360 | 344 ft | 18 kts | 215° |
| 2026-05-06 00:24 | -37.68552 | 144.84255 | 338 ft | 9 kts | 257° |
| 2026-05-06 00:24 | -37.68557 | 144.84185 | 351 ft | 8 kts | 268° |
| 2026-05-06 00:24 | -37.68552 | 144.84118 | 343 ft | 8 kts | 299° |
| 2026-05-06 00:24 | -37.68505 | 144.84085 | 349 ft | 8 kts | 350° |
| 2026-05-06 00:25 | -37.68475 | 144.84080 | 345 ft | 0 kts | 353° |
| 2026-05-06 00:25 | -37.68474 | 144.84080 | 345 ft | 1 kts | 353° |
| 2026-05-06 00:25 | -37.68414 | 144.84069 | 351 ft | 22 kts | 350° |
| 2026-05-06 00:25 | -37.68021 | 144.83993 | 359 ft | 89 kts | 352° |
| 2026-05-06 00:26 | -37.67231 | 144.83845 | 379 ft | 138 kts | 351° |
| 2026-05-06 00:26 | -37.66191 | 144.83613 | 668 ft | 154 kts | 349° |
| 2026-05-06 00:26 | -37.65140 | 144.83408 | 1302 ft | 152 kts | 351° |
| 2026-05-06 00:26 | -37.64092 | 144.83223 | 1927 ft | 152 kts | 349° |
| 2026-05-06 00:27 | -37.62994 | 144.83027 | 2307 ft | 170 kts | 348° |
| 2026-05-06 00:27 | -37.61740 | 144.82808 | 2560 ft | 194 kts | 348° |
| 2026-05-06 00:27 | -37.60317 | 144.82638 | 2807 ft | 221 kts | 1° |
| 2026-05-06 00:27 | -37.58812 | 144.83412 | 3139 ft | 253 kts | 38° |
| 2026-05-06 00:28 | -37.57505 | 144.85027 | 3769 ft | 269 kts | 45° |
| 2026-05-06 00:28 | -37.56211 | 144.86764 | 4668 ft | 274 kts | 46° |
| 2026-05-06 00:28 | -37.54910 | 144.88540 | 5590 ft | 279 kts | 45° |
| 2026-05-06 00:28 | -37.53580 | 144.90353 | 6469 ft | 284 kts | 45° |
| 2026-05-06 00:29 | -37.52227 | 144.92184 | 7327 ft | 288 kts | 45° |
| 2026-05-06 00:29 | -37.50920 | 144.93946 | 8166 ft | 291 kts | 44° |
| 2026-05-06 00:29 | -37.49528 | 144.95814 | 9047 ft | 294 kts | 43° |
| 2026-05-06 00:29 | -37.48113 | 144.97703 | 9923 ft | 297 kts | 43° |
| 2026-05-06 00:30 | -37.46668 | 144.99625 | 10428 ft | 314 kts | 43° |
| 2026-05-06 00:30 | -37.45099 | 145.01698 | 10675 ft | 338 kts | 43° |
| 2026-05-06 00:30 | -37.43444 | 145.03888 | 11183 ft | 350 kts | 43° |
| 2026-05-06 00:30 | -37.41844 | 145.06014 | 11884 ft | 355 kts | 43° |
| 2026-05-06 00:31 | -37.40142 | 145.08278 | 12670 ft | 358 kts | 43° |
| 2026-05-06 00:31 | -37.38424 | 145.10567 | 13482 ft | 361 kts | 43° |
| 2026-05-06 00:31 | -37.36689 | 145.12874 | 14251 ft | 365 kts | 43° |
| 2026-05-06 00:31 | -37.34934 | 145.15199 | 14965 ft | 368 kts | 43° |
| 2026-05-06 00:32 | -37.33165 | 145.17537 | 15703 ft | 371 kts | 42° |
| 2026-05-06 00:32 | -37.31389 | 145.19884 | 16424 ft | 373 kts | 42° |
| 2026-05-06 00:32 | -37.29599 | 145.22251 | 17137 ft | 376 kts | 42° |
| 2026-05-06 00:32 | -37.27788 | 145.24641 | 17853 ft | 379 kts | 42° |
| 2026-05-06 00:33 | -37.25963 | 145.27049 | 18574 ft | 382 kts | 42° |
| 2026-05-06 00:33 | -37.24131 | 145.29467 | 19235 ft | 384 kts | 42° |
| 2026-05-06 00:33 | -37.22280 | 145.31910 | 19899 ft | 387 kts | 41° |
| 2026-05-06 00:33 | -37.20414 | 145.34370 | 20548 ft | 391 kts | 41° |
| 2026-05-06 00:34 | -37.18526 | 145.36854 | 21186 ft | 396 kts | 41° |
| 2026-05-06 00:34 | -37.16639 | 145.39390 | 21788 ft | 402 kts | 45° |
| 2026-05-06 00:34 | -37.14949 | 145.42220 | 22361 ft | 409 kts | 50° |
| 2026-05-06 00:34 | -37.13282 | 145.45138 | 22915 ft | 414 kts | 50° |
| 2026-05-06 00:35 | -37.11596 | 145.48085 | 23468 ft | 418 kts | 50° |
| 2026-05-06 00:35 | -37.09887 | 145.51065 | 23997 ft | 423 kts | 50° |
| 2026-05-06 00:35 | -37.08167 | 145.54059 | 24479 ft | 426 kts | 50° |
| 2026-05-06 00:35 | -37.06425 | 145.57087 | 24989 ft | 429 kts | 50° |
| 2026-05-06 00:36 | -37.04678 | 145.60123 | 25473 ft | 432 kts | 49° |
| 2026-05-06 00:36 | -37.02917 | 145.63180 | 25948 ft | 435 kts | 49° |
| 2026-05-06 00:36 | -37.01140 | 145.66265 | 26401 ft | 439 kts | 49° |
| 2026-05-06 00:36 | -36.99346 | 145.69381 | 26830 ft | 443 kts | 49° |
| 2026-05-06 00:37 | -36.97542 | 145.72508 | 27278 ft | 446 kts | 49° |
| 2026-05-06 00:37 | -36.95716 | 145.75666 | 27725 ft | 449 kts | 49° |
| 2026-05-06 00:37 | -36.93879 | 145.78835 | 28165 ft | 452 kts | 49° |
| 2026-05-06 00:37 | -36.92027 | 145.82027 | 28593 ft | 455 kts | 49° |
| 2026-05-06 00:38 | -36.90166 | 145.85241 | 29003 ft | 458 kts | 49° |
| 2026-05-06 00:38 | -36.88294 | 145.88478 | 29388 ft | 461 kts | 49° |
| 2026-05-06 00:38 | -36.86408 | 145.91736 | 29752 ft | 464 kts | 49° |
| 2026-05-06 00:38 | -36.84518 | 145.94994 | 30286 ft | 463 kts | 49° |
| 2026-05-06 00:39 | -36.82651 | 145.98202 | 30760 ft | 462 kts | 49° |
| 2026-05-06 00:39 | -36.80737 | 146.01484 | 31200 ft | 461 kts | 49° |
| 2026-05-06 00:39 | -36.78852 | 146.04713 | 31632 ft | 461 kts | 49° |
| 2026-05-06 00:39 | -36.76964 | 146.07948 | 32102 ft | 461 kts | 49° |
| 2026-05-06 00:40 | -36.75082 | 146.11171 | 32526 ft | 460 kts | 49° |
| 2026-05-06 00:40 | -36.73195 | 146.14406 | 32986 ft | 460 kts | 49° |
| 2026-05-06 00:40 | -36.71339 | 146.17578 | 33443 ft | 459 kts | 48° |
| 2026-05-06 00:40 | -36.69454 | 146.20788 | 33907 ft | 459 kts | 48° |
| 2026-05-06 00:41 | -36.67571 | 146.23994 | 34359 ft | 458 kts | 48° |
| 2026-05-06 00:41 | -36.65689 | 146.27196 | 34739 ft | 458 kts | 48° |
| 2026-05-06 00:41 | -36.63811 | 146.30391 | 35125 ft | 458 kts | 48° |
| 2026-05-06 00:41 | -36.61930 | 146.33592 | 35486 ft | 457 kts | 48° |
| 2026-05-06 00:42 | -36.60051 | 146.36790 | 35848 ft | 457 kts | 49° |
| 2026-05-06 00:42 | -36.58174 | 146.39982 | 36202 ft | 457 kts | 49° |
| 2026-05-06 00:42 | -36.56297 | 146.43167 | 36556 ft | 457 kts | 48° |
| 2026-05-06 00:42 | -36.54416 | 146.46352 | 36900 ft | 456 kts | 48° |
| 2026-05-06 00:43 | -36.52540 | 146.49521 | 37185 ft | 457 kts | 48° |
| 2026-05-06 00:43 | -36.48733 | 146.55937 | 37232 ft | 463 kts | 48° |
| 2026-05-06 00:44 | -36.44904 | 146.62397 | 37252 ft | 465 kts | 49° |
| 2026-05-06 00:44 | -36.41070 | 146.68867 | 37246 ft | 465 kts | 49° |
| 2026-05-06 00:45 | -36.37227 | 146.75336 | 37252 ft | 465 kts | 49° |
| 2026-05-06 00:45 | -36.33378 | 146.81784 | 37247 ft | 465 kts | 48° |
| 2026-05-06 00:46 | -36.29526 | 146.88221 | 37248 ft | 465 kts | 49° |
| 2026-05-06 00:46 | -36.25672 | 146.94658 | 37255 ft | 466 kts | 48° |
| 2026-05-06 00:47 | -36.21804 | 147.01115 | 37243 ft | 466 kts | 49° |
| 2026-05-06 00:47 | -36.17945 | 147.07550 | 37256 ft | 466 kts | 49° |
| 2026-05-06 00:48 | -36.14075 | 147.13971 | 37258 ft | 466 kts | 48° |
| 2026-05-06 00:48 | -36.10199 | 147.20384 | 37262 ft | 466 kts | 48° |
| 2026-05-06 00:49 | -36.06321 | 147.26803 | 37247 ft | 466 kts | 49° |
| 2026-05-06 00:49 | -36.02446 | 147.33219 | 37257 ft | 465 kts | 49° |
| 2026-05-06 00:50 | -35.98566 | 147.39617 | 37255 ft | 466 kts | 49° |
| 2026-05-06 00:50 | -35.94677 | 147.46017 | 37257 ft | 466 kts | 49° |
| 2026-05-06 00:51 | -35.90786 | 147.52406 | 37254 ft | 466 kts | 48° |
| 2026-05-06 00:51 | -35.86897 | 147.58792 | 37259 ft | 466 kts | 49° |
| 2026-05-06 00:52 | -35.83008 | 147.65171 | 37254 ft | 465 kts | 48° |
| 2026-05-06 00:52 | -35.79113 | 147.71533 | 37241 ft | 465 kts | 48° |
| 2026-05-06 00:53 | -35.75204 | 147.77892 | 37243 ft | 465 kts | 48° |
| 2026-05-06 00:53 | -35.71296 | 147.84247 | 37250 ft | 465 kts | 48° |
| 2026-05-06 00:54 | -35.67391 | 147.90593 | 37252 ft | 465 kts | 48° |
| 2026-05-06 00:54 | -35.63482 | 147.96942 | 37242 ft | 465 kts | 49° |
| 2026-05-06 00:55 | -35.59577 | 148.03266 | 37241 ft | 465 kts | 48° |
| 2026-05-06 00:55 | -35.55655 | 148.09596 | 37235 ft | 465 kts | 48° |
| 2026-05-06 00:56 | -35.51738 | 148.15921 | 37240 ft | 465 kts | 48° |
| 2026-05-06 00:56 | -35.47848 | 148.22193 | 37230 ft | 465 kts | 49° |
| 2026-05-06 00:57 | -35.44561 | 148.27474 | 37228 ft | 465 kts | 48° |
| 2026-05-06 00:57 | -35.40624 | 148.33781 | 37231 ft | 466 kts | 48° |
| 2026-05-06 00:58 | -35.36054 | 148.41106 | 37216 ft | 466 kts | 48° |
| 2026-05-06 00:58 | -35.32751 | 148.46384 | 37231 ft | 465 kts | 48° |
| 2026-05-06 00:59 | -35.28805 | 148.52670 | 37226 ft | 466 kts | 48° |
| 2026-05-06 00:59 | -35.24855 | 148.58953 | 37234 ft | 466 kts | 48° |
| 2026-05-06 01:00 | -35.20905 | 148.65241 | 37222 ft | 466 kts | 48° |
| 2026-05-06 01:00 | -35.16977 | 148.71482 | 37230 ft | 466 kts | 48° |
| 2026-05-06 01:01 | -35.13018 | 148.77754 | 37251 ft | 466 kts | 48° |
| 2026-05-06 01:01 | -35.09050 | 148.84035 | 37255 ft | 467 kts | 48° |
| 2026-05-06 01:02 | -35.05088 | 148.90301 | 37241 ft | 467 kts | 48° |
| 2026-05-06 01:02 | -35.01108 | 148.96565 | 37249 ft | 467 kts | 48° |
| 2026-05-06 01:03 | -34.97125 | 149.02820 | 37255 ft | 467 kts | 48° |
| 2026-05-06 01:03 | -34.93144 | 149.09071 | 37257 ft | 467 kts | 48° |
| 2026-05-06 01:04 | -34.89156 | 149.15322 | 37237 ft | 467 kts | 48° |
| 2026-05-06 01:05 | -34.80829 | 149.28352 | 36280 ft | 468 kts | 48° |
| 2026-05-06 01:05 | -34.78813 | 149.31496 | 35511 ft | 472 kts | 49° |
| 2026-05-06 01:05 | -34.76811 | 149.34615 | 34683 ft | 478 kts | 49° |
| 2026-05-06 01:05 | -34.74740 | 149.37866 | 33711 ft | 483 kts | 52° |
| 2026-05-06 01:06 | -34.72966 | 149.41346 | 32825 ft | 486 kts | 60° |
| 2026-05-06 01:06 | -34.71381 | 149.44986 | 31866 ft | 488 kts | 60° |
| 2026-05-06 01:06 | -34.69815 | 149.48591 | 31189 ft | 485 kts | 60° |
| 2026-05-06 01:06 | -34.68252 | 149.52197 | 30639 ft | 480 kts | 60° |
| 2026-05-06 01:07 | -34.66701 | 149.55763 | 29988 ft | 477 kts | 60° |
| 2026-05-06 01:07 | -34.65151 | 149.59311 | 29393 ft | 473 kts | 60° |
| 2026-05-06 01:07 | -34.63614 | 149.62821 | 28800 ft | 468 kts | 60° |
| 2026-05-06 01:07 | -34.62089 | 149.66298 | 28216 ft | 465 kts | 60° |
| 2026-05-06 01:08 | -34.60576 | 149.69744 | 27633 ft | 461 kts | 60° |
| 2026-05-06 01:08 | -34.59053 | 149.73203 | 27045 ft | 457 kts | 60° |
| 2026-05-06 01:08 | -34.57581 | 149.76547 | 26489 ft | 453 kts | 60° |
| 2026-05-06 01:08 | -34.56105 | 149.79900 | 25932 ft | 449 kts | 60° |
| 2026-05-06 01:09 | -34.54637 | 149.83238 | 25383 ft | 446 kts | 60° |
| 2026-05-06 01:09 | -34.53184 | 149.86545 | 24843 ft | 443 kts | 60° |
| 2026-05-06 01:09 | -34.51741 | 149.89818 | 24332 ft | 440 kts | 60° |
| 2026-05-06 01:09 | -34.50298 | 149.93083 | 23814 ft | 437 kts | 60° |
| 2026-05-06 01:10 | -34.48867 | 149.96321 | 23259 ft | 433 kts | 60° |
| 2026-05-06 01:10 | -34.47455 | 149.99513 | 22786 ft | 428 kts | 60° |
| 2026-05-06 01:10 | -34.46056 | 150.02673 | 22301 ft | 424 kts | 60° |
| 2026-05-06 01:10 | -34.44665 | 150.05816 | 21821 ft | 420 kts | 60° |
| 2026-05-06 01:11 | -34.43289 | 150.08917 | 21334 ft | 418 kts | 60° |
| 2026-05-06 01:11 | -34.41915 | 150.12012 | 20848 ft | 415 kts | 60° |
| 2026-05-06 01:11 | -34.40548 | 150.15082 | 20342 ft | 414 kts | 60° |
| 2026-05-06 01:11 | -34.39182 | 150.18147 | 19845 ft | 413 kts | 60° |
| 2026-05-06 01:12 | -34.37821 | 150.21201 | 19382 ft | 411 kts | 60° |
| 2026-05-06 01:12 | -34.36471 | 150.24233 | 18874 ft | 411 kts | 60° |
| 2026-05-06 01:12 | -34.35127 | 150.27256 | 18548 ft | 404 kts | 60° |
| 2026-05-06 01:12 | -34.33800 | 150.30238 | 17991 ft | 402 kts | 60° |
| 2026-05-06 01:13 | -34.32476 | 150.33211 | 17449 ft | 400 kts | 60° |
| 2026-05-06 01:13 | -34.31284 | 150.35877 | 16986 ft | 398 kts | 60° |
| 2026-05-06 01:13 | -34.29974 | 150.38797 | 16472 ft | 395 kts | 60° |
| 2026-05-06 01:13 | -34.28662 | 150.41714 | 15985 ft | 392 kts | 60° |
| 2026-05-06 01:14 | -34.26089 | 150.47457 | 14827 ft | 382 kts | 60° |
| 2026-05-06 01:14 | -34.24835 | 150.50265 | 13994 ft | 376 kts | 59° |
| 2026-05-06 01:14 | -34.23612 | 150.53005 | 13374 ft | 362 kts | 59° |
| 2026-05-06 01:15 | -34.22445 | 150.55620 | 12879 ft | 347 kts | 60° |
| 2026-05-06 01:15 | -34.21326 | 150.58119 | 12635 ft | 327 kts | 59° |
| 2026-05-06 01:15 | -34.20270 | 150.60476 | 12256 ft | 314 kts | 59° |
| 2026-05-06 01:15 | -34.19245 | 150.62760 | 11972 ft | 307 kts | 59° |
| 2026-05-06 01:16 | -34.18231 | 150.65034 | 11720 ft | 312 kts | 62° |
| 2026-05-06 01:16 | -34.17608 | 150.67650 | 11473 ft | 336 kts | 85° |
| 2026-05-06 01:16 | -34.17548 | 150.70502 | 11225 ft | 339 kts | 89° |
| 2026-05-06 01:16 | -34.17533 | 150.73311 | 11064 ft | 329 kts | 89° |
| 2026-05-06 01:17 | -34.17530 | 150.75995 | 10948 ft | 319 kts | 89° |
| 2026-05-06 01:17 | -34.17528 | 150.77791 | 10865 ft | 313 kts | 89° |
| 2026-05-06 01:17 | -34.17520 | 150.81205 | 10550 ft | 301 kts | 89° |
| 2026-05-06 01:17 | -34.17512 | 150.83747 | 10077 ft | 297 kts | 89° |
| 2026-05-06 01:18 | -34.17503 | 150.86216 | 9729 ft | 301 kts | 89° |
| 2026-05-06 01:18 | -34.17489 | 150.88750 | 9433 ft | 298 kts | 88° |
| 2026-05-06 01:18 | -34.17479 | 150.90427 | 9297 ft | 294 kts | 88° |
| 2026-05-06 01:18 | -34.17460 | 150.93670 | 8947 ft | 290 kts | 88° |
| 2026-05-06 01:19 | -34.17442 | 150.96091 | 8665 ft | 288 kts | 88° |
| 2026-05-06 01:19 | -34.17422 | 150.98504 | 8389 ft | 286 kts | 88° |
| 2026-05-06 01:19 | -34.17403 | 151.00892 | 8109 ft | 284 kts | 88° |
| 2026-05-06 01:19 | -34.17384 | 151.03328 | 7426 ft | 296 kts | 87° |
| 2026-05-06 01:20 | -34.17363 | 151.05826 | 6667 ft | 298 kts | 87° |
| 2026-05-06 01:20 | -34.17350 | 151.07514 | 6124 ft | 298 kts | 87° |
| 2026-05-06 01:20 | -34.17328 | 151.10832 | 5083 ft | 298 kts | 88° |
| 2026-05-06 01:20 | -34.17313 | 151.13297 | 4521 ft | 289 kts | 88° |
| 2026-05-06 01:21 | -34.17295 | 151.15646 | 4382 ft | 271 kts | 88° |
| 2026-05-06 01:21 | -34.17283 | 151.17133 | 4333 ft | 264 kts | 88° |
| 2026-05-06 01:21 | -34.17263 | 151.19324 | 4232 ft | 259 kts | 86° |
| 2026-05-06 01:21 | -34.16835 | 151.21420 | 4126 ft | 253 kts | 56° |
| 2026-05-06 01:22 | -34.15551 | 151.22735 | 3910 ft | 245 kts | 20° |
| 2026-05-06 01:22 | -34.13888 | 151.22900 | 3560 ft | 246 kts | 353° |
| 2026-05-06 01:22 | -34.12201 | 151.22517 | 3214 ft | 248 kts | 347° |
| 2026-05-06 01:22 | -34.10520 | 151.22004 | 2867 ft | 248 kts | 346° |
| 2026-05-06 01:23 | -34.08891 | 151.21488 | 2527 ft | 236 kts | 346° |
| 2026-05-06 01:23 | -34.07340 | 151.21014 | 2203 ft | 223 kts | 347° |
| 2026-05-06 01:23 | -34.05860 | 151.20584 | 1899 ft | 216 kts | 347° |
| 2026-05-06 01:23 | -34.04436 | 151.20184 | 1621 ft | 205 kts | 348° |
| 2026-05-06 01:24 | -34.03065 | 151.19810 | 1357 ft | 201 kts | 347° |
| 2026-05-06 01:24 | -34.01713 | 151.19449 | 1107 ft | 195 kts | 348° |
| 2026-05-06 01:24 | -34.00427 | 151.19110 | 848 ft | 183 kts | 348° |
| 2026-05-06 01:24 | -33.99234 | 151.18801 | 631 ft | 165 kts | 347° |
| 2026-05-06 01:25 | -33.98170 | 151.18532 | 405 ft | 150 kts | 346° |
| 2026-05-06 01:25 | -33.97184 | 151.18278 | 212 ft | 144 kts | 344° |
| 2026-05-06 01:25 | -33.96213 | 151.18009 | 50 ft | 142 kts | 345° |
| 2026-05-06 01:25 | -33.95320 | 151.17760 | 23 ft | 107 kts | 349° |
| 2026-05-06 01:26 | -33.94876 | 151.17657 | 22 ft | 36 kts | 349° |
| 2026-05-06 01:26 | -33.94610 | 151.17594 | 25 ft | 39 kts | 348° |
| 2026-05-06 01:26 | -33.94344 | 151.17524 | 25 ft | 39 kts | 346° |
| 2026-05-06 01:26 | -33.94078 | 151.17453 | 19 ft | 37 kts | 349° |
| 2026-05-06 01:27 | -33.93875 | 151.17402 | 18 ft | 28 kts | 346° |
| 2026-05-06 01:27 | -33.93721 | 151.17366 | 15 ft | 21 kts | 5° |
| 2026-05-06 01:27 | -33.93644 | 151.17503 | 15 ft | 13 kts | 85° |
| 2026-05-06 01:27 | -33.93634 | 151.17595 | 25 ft | 7 kts | 64° |
| 2026-05-06 01:28 | -33.93620 | 151.17613 | 26 ft | 3 kts | 39° |
| 2026-05-06 01:28 | -33.93575 | 151.17611 | 27 ft | 12 kts | 344° |
| 2026-05-06 01:28 | -33.93488 | 151.17587 | 28 ft | 14 kts | 353° |
| 2026-05-06 01:28 | -33.93390 | 151.17592 | 30 ft | 15 kts | 357° |
| 2026-05-06 01:29 | -33.93282 | 151.17567 | 30 ft | 17 kts | 347° |
| 2026-05-06 01:29 | -33.93160 | 151.17533 | 30 ft | 18 kts | 351° |
| 2026-05-06 01:29 | -33.93070 | 151.17528 | 30 ft | 11 kts | 18° |
| 2026-05-06 01:29 | -33.93006 | 151.17579 | 30 ft | 12 kts | 70° |
| 2026-05-06 01:30 | -33.93025 | 151.17687 | 30 ft | 14 kts | 112° |
| 2026-05-06 01:30 | -33.93062 | 151.17794 | 31 ft | 11 kts | 103° |
| 2026-05-06 01:30 | -33.93075 | 151.17890 | 31 ft | 10 kts | 98° |
| 2026-05-06 01:30 | -33.93105 | 151.17951 | 31 ft | 9 kts | 141° |
| 2026-05-06 01:31 | -33.93163 | 151.17972 | 31 ft | 10 kts | 193° |
| 2026-05-06 01:31 | -33.93174 | 151.17968 | 31 ft | 0 kts | 193° |